sensor_id;sensor_type;location;lat;lon;timestamp;pressure;altitude;pressure_sealevel;temperature;humidity
19811;BME280;10065;49.632;8.346;2022-09-01T00:01:48;100851.72;;;20.53;60.46
19811;BME280;10065;49.632;8.346;2022-09-01T00:04:18;100849.84;;;20.47;60.51
19811;BME280;10065;49.632;8.346;2022-09-01T00:06:46;100850.63;;;20.41;61.20
19811;BME280;10065;49.632;8.346;2022-09-01T00:09:16;100848.38;;;20.38;60.67
19811;BME280;10065;49.632;8.346;2022-09-01T00:11:47;100847.53;;;20.44;60.63
19811;BME280;10065;49.632;8.346;2022-09-01T00:14:17;100845.28;;;20.48;60.37
19811;BME280;10065;49.632;8.346;2022-09-01T00:16:58;100847.16;;;20.47;60.80
19811;BME280;10065;49.632;8.346;2022-09-01T00:19:27;100837.59;;;20.51;60.20
19811;BME280;10065;49.632;8.346;2022-09-01T00:21:56;100839.28;;;20.52;59.78
19811;BME280;10065;49.632;8.346;2022-09-01T00:24:23;100842.78;;;20.46;59.79
19811;BME280;10065;49.632;8.346;2022-09-01T00:26:52;100839.47;;;20.44;60.16
19811;BME280;10065;49.632;8.346;2022-09-01T00:29:23;100839.47;;;20.44;59.65
19811;BME280;10065;49.632;8.346;2022-09-01T00:31:51;100841.75;;;20.47;59.85
19811;BME280;10065;49.632;8.346;2022-09-01T00:34:20;100833.25;;;20.50;59.34
19811;BME280;10065;49.632;8.346;2022-09-01T00:36:49;100831.38;;;20.44;59.71
19811;BME280;10065;49.632;8.346;2022-09-01T00:39:16;100834.06;;;20.44;59.86
19811;BME280;10065;49.632;8.346;2022-09-01T00:41:44;100832.00;;;20.46;59.41
19811;BME280;10065;49.632;8.346;2022-09-01T00:44:15;100832.84;;;20.53;59.07
19811;BME280;10065;49.632;8.346;2022-09-01T00:46:45;100827.88;;;20.50;59.50
19811;BME280;10065;49.632;8.346;2022-09-01T00:49:27;100826.19;;;20.43;59.79
19811;BME280;10065;49.632;8.346;2022-09-01T00:52:03;100828.47;;;20.39;59.60
19811;BME280;10065;49.632;8.346;2022-09-01T00:54:35;100836.31;;;20.34;59.54
19811;BME280;10065;49.632;8.346;2022-09-01T00:57:07;100836.50;;;20.33;59.39
19811;BME280;10065;49.632;8.346;2022-09-01T00:59:38;100831.09;;;20.33;59.61
19811;BME280;10065;49.632;8.346;2022-09-01T01:02:08;100841.03;;;20.32;59.32
19811;BME280;10065;49.632;8.346;2022-09-01T01:04:38;100830.50;;;20.31;59.37
19811;BME280;10065;49.632;8.346;2022-09-01T01:07:09;100830.28;;;20.32;59.33
19811;BME280;10065;49.632;8.346;2022-09-01T01:09:40;100826.97;;;20.30;59.16
19811;BME280;10065;49.632;8.346;2022-09-01T01:12:11;100831.09;;;20.26;59.58
19811;BME280;10065;49.632;8.346;2022-09-01T01:14:39;100830.44;;;20.24;59.35
19811;BME280;10065;49.632;8.346;2022-09-01T01:17:11;100831.47;;;20.23;59.47
19811;BME280;10065;49.632;8.346;2022-09-01T01:19:42;100824.84;;;20.19;59.76
19811;BME280;10065;49.632;8.346;2022-09-01T01:22:35;100826.91;;;20.17;59.47
19811;BME280;10065;49.632;8.346;2022-09-01T01:25:25;100829.41;;;20.12;59.89
19811;BME280;10065;49.632;8.346;2022-09-01T01:28:03;100831.06;;;20.13;59.85
19811;BME280;10065;49.632;8.346;2022-09-01T01:30:31;100832.09;;;20.12;59.62
19811;BME280;10065;49.632;8.346;2022-09-01T01:33:03;100832.09;;;20.12;59.21
19811;BME280;10065;49.632;8.346;2022-09-01T01:35:31;100834.16;;;20.10;59.63
19811;BME280;10065;49.632;8.346;2022-09-01T01:38:00;100833.75;;;20.13;59.51
19811;BME280;10065;49.632;8.346;2022-09-01T01:40:29;100831.44;;;20.03;59.78
19811;BME280;10065;49.632;8.346;2022-09-01T01:42:58;100832.66;;;20.01;59.68
19811;BME280;10065;49.632;8.346;2022-09-01T01:45:27;100831.00;;;20.06;59.57
19811;BME280;10065;49.632;8.346;2022-09-01T01:47:55;100837.88;;;20.09;59.33
19811;BME280;10065;49.632;8.346;2022-09-01T01:50:25;100836.84;;;20.10;58.77
19811;BME280;10065;49.632;8.346;2022-09-01T01:52:56;100830.44;;;20.11;58.38
19811;BME280;10065;49.632;8.346;2022-09-01T01:55:25;100833.50;;;20.08;58.73
19811;BME280;10065;49.632;8.346;2022-09-01T01:57:56;100838.25;;;20.06;58.96
19811;BME280;10065;49.632;8.346;2022-09-01T02:00:26;100829.56;;;20.04;59.22
19811;BME280;10065;49.632;8.346;2022-09-01T02:02:56;100836.75;;;19.97;58.85
19811;BME280;10065;49.632;8.346;2022-09-01T02:05:29;100833.06;;;19.98;59.02
19811;BME280;10065;49.632;8.346;2022-09-01T02:08:01;100829.31;;;19.92;58.96
19811;BME280;10065;49.632;8.346;2022-09-01T02:10:32;100835.31;;;19.87;58.98
19811;BME280;10065;49.632;8.346;2022-09-01T02:13:04;100827.00;;;19.89;59.37
19811;BME280;10065;49.632;8.346;2022-09-01T02:15:36;100827.22;;;19.87;58.71
19811;BME280;10065;49.632;8.346;2022-09-01T02:18:10;100825.56;;;19.86;59.28
19811;BME280;10065;49.632;8.346;2022-09-01T02:20:39;100820.56;;;19.83;59.55
19811;BME280;10065;49.632;8.346;2022-09-01T02:23:07;100823.47;;;19.82;59.49
19811;BME280;10065;49.632;8.346;2022-09-01T02:25:40;100821.38;;;19.77;59.36
19811;BME280;10065;49.632;8.346;2022-09-01T02:28:33;100827.34;;;19.73;59.78
19811;BME280;10065;49.632;8.346;2022-09-01T02:31:03;100819.91;;;19.75;59.44
19811;BME280;10065;49.632;8.346;2022-09-01T02:33:35;100826.50;;;19.72;59.50
19811;BME280;10065;49.632;8.346;2022-09-01T02:36:05;100824.00;;;19.71;59.66
19811;BME280;10065;49.632;8.346;2022-09-01T02:38:34;100830.00;;;19.66;60.18
19811;BME280;10065;49.632;8.346;2022-09-01T02:41:04;100823.56;;;19.61;60.17
19811;BME280;10065;49.632;8.346;2022-09-01T02:43:33;100819.44;;;19.65;59.85
19811;BME280;10065;49.632;8.346;2022-09-01T02:46:03;100817.97;;;19.62;60.22
19811;BME280;10065;49.632;8.346;2022-09-01T02:48:33;100817.97;;;19.62;59.99
19811;BME280;10065;49.632;8.346;2022-09-01T02:51:04;100818.59;;;19.58;60.09
19811;BME280;10065;49.632;8.346;2022-09-01T02:53:33;100813.19;;;19.58;59.81
19811;BME280;10065;49.632;8.346;2022-09-01T02:56:02;100825.81;;;19.57;59.91
19811;BME280;10065;49.632;8.346;2022-09-01T02:58:36;100817.09;;;19.55;59.77
19811;BME280;10065;49.632;8.346;2022-09-01T03:01:13;100817.53;;;19.52;60.33
19811;BME280;10065;49.632;8.346;2022-09-01T03:03:47;100819.16;;;19.53;60.32
19811;BME280;10065;49.632;8.346;2022-09-01T03:06:16;100819.16;;;19.53;60.20
19811;BME280;10065;49.632;8.346;2022-09-01T03:08:49;100815.88;;;19.58;59.38
19811;BME280;10065;49.632;8.346;2022-09-01T03:11:18;100812.81;;;19.61;59.50
19811;BME280;10065;49.632;8.346;2022-09-01T03:13:47;100817.56;;;19.59;59.51
19811;BME280;10065;49.632;8.346;2022-09-01T03:16:15;100815.44;;;19.54;59.83
19811;BME280;10065;49.632;8.346;2022-09-01T03:18:42;100805.97;;;19.58;59.58
19811;BME280;10065;49.632;8.346;2022-09-01T03:21:10;100809.69;;;19.57;59.66
19811;BME280;10065;49.632;8.346;2022-09-01T03:23:44;100813.66;;;19.61;59.17
19811;BME280;10065;49.632;8.346;2022-09-01T03:26:14;100814.25;;;19.63;58.83
19811;BME280;10065;49.632;8.346;2022-09-01T03:28:44;100815.88;;;19.58;59.33
19811;BME280;10065;49.632;8.346;2022-09-01T03:31:14;100820.00;;;19.53;59.18
19811;BME280;10065;49.632;8.346;2022-09-01T03:33:43;100820.41;;;19.50;59.67
19811;BME280;10065;49.632;8.346;2022-09-01T03:36:11;100829.03;;;19.46;59.43
19811;BME280;10065;49.632;8.346;2022-09-01T03:38:45;100825.69;;;19.44;59.62
19811;BME280;10065;49.632;8.346;2022-09-01T03:41:15;100822.81;;;19.45;59.30
19811;BME280;10065;49.632;8.346;2022-09-01T03:43:45;100829.13;;;19.52;58.94
19811;BME280;10065;49.632;8.346;2022-09-01T03:46:16;100822.47;;;19.48;59.03
19811;BME280;10065;49.632;8.346;2022-09-01T03:48:48;100825.31;;;19.47;59.50
19811;BME280;10065;49.632;8.346;2022-09-01T03:51:17;100819.09;;;19.46;59.01
19811;BME280;10065;49.632;8.346;2022-09-01T03:53:46;100810.16;;;19.39;59.58
19811;BME280;10065;49.632;8.346;2022-09-01T03:56:14;100814.66;;;19.32;59.55
19811;BME280;10065;49.632;8.346;2022-09-01T03:58:42;100815.88;;;19.30;59.76
19811;BME280;10065;49.632;8.346;2022-09-01T04:01:13;100812.81;;;19.33;59.47
19811;BME280;10065;49.632;8.346;2022-09-01T04:03:43;100812.41;;;19.36;59.59
19811;BME280;10065;49.632;8.346;2022-09-01T04:06:15;100814.47;;;19.34;59.30
19811;BME280;10065;49.632;8.346;2022-09-01T04:08:45;100822.31;;;19.35;59.48
19811;BME280;10065;49.632;8.346;2022-09-01T04:11:14;100823.16;;;19.36;59.21
19811;BME280;10065;49.632;8.346;2022-09-01T04:13:44;100822.75;;;19.32;59.48
19811;BME280;10065;49.632;8.346;2022-09-01T04:16:17;100818.75;;;19.28;59.89
19811;BME280;10065;49.632;8.346;2022-09-01T04:19:00;100823.31;;;19.28;59.37
19811;BME280;10065;49.632;8.346;2022-09-01T04:21:34;100819.38;;;19.24;59.59
19811;BME280;10065;49.632;8.346;2022-09-01T04:24:04;100813.03;;;19.10;60.46
19811;BME280;10065;49.632;8.346;2022-09-01T04:26:34;100819.31;;;19.17;59.92
19811;BME280;10065;49.632;8.346;2022-09-01T04:29:03;100826.41;;;19.25;59.41
19811;BME280;10065;49.632;8.346;2022-09-01T04:31:32;100823.22;;;19.14;60.01
19811;BME280;10065;49.632;8.346;2022-09-01T04:34:02;100823.59;;;19.11;60.28
19811;BME280;10065;49.632;8.346;2022-09-01T04:36:39;100830.00;;;19.10;60.23
19811;BME280;10065;49.632;8.346;2022-09-01T04:39:09;100831.81;;;19.03;60.26
19811;BME280;10065;49.632;8.346;2022-09-01T04:41:40;100836.16;;;19.04;60.09
19811;BME280;10065;49.632;8.346;2022-09-01T04:44:08;100839.69;;;19.05;60.71
19811;BME280;10065;49.632;8.346;2022-09-01T04:46:38;100827.88;;;18.99;60.72
19811;BME280;10065;49.632;8.346;2022-09-01T04:49:09;100834.25;;;18.98;61.10
19811;BME280;10065;49.632;8.346;2022-09-01T04:51:39;100841.91;;;19.01;60.78
19811;BME280;10065;49.632;8.346;2022-09-01T04:54:07;100841.09;;;19.01;61.05
19811;BME280;10065;49.632;8.346;2022-09-01T04:56:41;100838.84;;;19.04;60.91
19811;BME280;10065;49.632;8.346;2022-09-01T04:59:11;100834.13;;;19.06;60.92
19811;BME280;10065;49.632;8.346;2022-09-01T05:01:40;100835.78;;;19.07;60.55
19811;BME280;10065;49.632;8.346;2022-09-01T05:04:14;100831.66;;;19.11;60.29
19811;BME280;10065;49.632;8.346;2022-09-01T05:06:43;100830.47;;;19.14;60.67
19811;BME280;10065;49.632;8.346;2022-09-01T05:09:12;100827.13;;;19.12;60.55
19811;BME280;10065;49.632;8.346;2022-09-01T05:11:41;100826.09;;;19.13;60.47
19811;BME280;10065;49.632;8.346;2022-09-01T05:14:11;100826.28;;;19.11;60.71
19811;BME280;10065;49.632;8.346;2022-09-01T05:16:39;100825.91;;;19.14;60.52
19811;BME280;10065;49.632;8.346;2022-09-01T05:19:08;100827.97;;;19.12;60.16
19811;BME280;10065;49.632;8.346;2022-09-01T05:21:42;100830.66;;;19.12;60.72
19811;BME280;10065;49.632;8.346;2022-09-01T05:24:12;100834.63;;;19.16;60.38
19811;BME280;10065;49.632;8.346;2022-09-01T05:26:42;100827.41;;;19.17;60.57
19811;BME280;10065;49.632;8.346;2022-09-01T05:29:13;100829.63;;;19.13;60.37
19811;BME280;10065;49.632;8.346;2022-09-01T05:31:45;100824.56;;;19.25;60.21
19811;BME280;10065;49.632;8.346;2022-09-01T05:34:16;100825.38;;;19.26;60.24
19811;BME280;10065;49.632;8.346;2022-09-01T05:36:48;100829.66;;;19.20;60.40
19811;BME280;10065;49.632;8.346;2022-09-01T05:39:17;100830.13;;;19.24;60.39
19811;BME280;10065;49.632;8.346;2022-09-01T05:41:45;100834.41;;;19.18;60.88
19811;BME280;10065;49.632;8.346;2022-09-01T05:44:15;100837.16;;;19.25;60.11
19811;BME280;10065;49.632;8.346;2022-09-01T05:46:44;100821.41;;;19.22;60.42
19811;BME280;10065;49.632;8.346;2022-09-01T05:49:12;100833.56;;;19.17;60.51
19811;BME280;10065;49.632;8.346;2022-09-01T05:51:43;100834.66;;;19.23;60.36
19811;BME280;10065;49.632;8.346;2022-09-01T05:54:19;100835.03;;;19.20;60.99
19811;BME280;10065;49.632;8.346;2022-09-01T05:56:48;100839.78;;;19.18;61.29
19811;BME280;10065;49.632;8.346;2022-09-01T05:59:19;100845.59;;;19.22;61.43
19811;BME280;10065;49.632;8.346;2022-09-01T06:01:49;100837.16;;;19.25;61.30
19811;BME280;10065;49.632;8.346;2022-09-01T06:04:19;100828.25;;;19.24;61.52
19811;BME280;10065;49.632;8.346;2022-09-01T06:06:47;100832.53;;;19.18;61.73
19811;BME280;10065;49.632;8.346;2022-09-01T06:09:38;100844.59;;;19.23;61.92
19811;BME280;10065;49.632;8.346;2022-09-01T06:12:08;100841.75;;;19.31;61.83
19811;BME280;10065;49.632;8.346;2022-09-01T06:14:42;100844.66;;;19.36;62.04
19811;BME280;10065;49.632;8.346;2022-09-01T06:17:10;100846.16;;;19.38;62.28
19811;BME280;10065;49.632;8.346;2022-09-01T06:19:42;100847.63;;;19.41;62.69
19811;BME280;10065;49.632;8.346;2022-09-01T06:22:10;100846.06;;;19.53;61.98
19811;BME280;10065;49.632;8.346;2022-09-01T06:24:39;100852.34;;;19.60;61.86
19811;BME280;10065;49.632;8.346;2022-09-01T06:27:11;100851.09;;;19.63;61.48
19811;BME280;10065;49.632;8.346;2022-09-01T06:29:39;100851.09;;;19.63;61.10
19811;BME280;10065;49.632;8.346;2022-09-01T06:32:07;100848.84;;;19.66;61.21
19811;BME280;10065;49.632;8.346;2022-09-01T06:34:35;100850.09;;;19.70;61.13
19811;BME280;10065;49.632;8.346;2022-09-01T06:37:05;100841.00;;;19.71;61.25
19811;BME280;10065;49.632;8.346;2022-09-01T06:39:33;100846.63;;;19.76;61.24
19811;BME280;10065;49.632;8.346;2022-09-01T06:42:02;100851.81;;;19.78;61.30
19811;BME280;10065;49.632;8.346;2022-09-01T06:44:32;100841.47;;;19.81;60.93
19811;BME280;10065;49.632;8.346;2022-09-01T06:47:06;100847.88;;;19.80;61.28
19811;BME280;10065;49.632;8.346;2022-09-01T06:49:34;100848.53;;;19.89;61.28
19811;BME280;10065;49.632;8.346;2022-09-01T06:52:05;100851.28;;;19.96;61.05
19811;BME280;10065;49.632;8.346;2022-09-01T06:54:34;100846.94;;;20.01;60.72
19811;BME280;10065;49.632;8.346;2022-09-01T06:57:06;100845.09;;;20.02;61.29
19811;BME280;10065;49.632;8.346;2022-09-01T06:59:54;100849.91;;;20.13;60.06
19811;BME280;10065;49.632;8.346;2022-09-01T07:02:22;100850.94;;;20.12;60.69
19811;BME280;10065;49.632;8.346;2022-09-01T07:04:53;100852.19;;;20.16;60.11
19811;BME280;10065;49.632;8.346;2022-09-01T07:07:40;100860.44;;;20.14;60.11
19811;BME280;10065;49.632;8.346;2022-09-01T07:10:29;100868.75;;;20.13;60.96
19811;BME280;10065;49.632;8.346;2022-09-01T07:12:58;100865.03;;;20.14;60.84
19811;BME280;10065;49.632;8.346;2022-09-01T07:15:37;100864.84;;;20.22;60.75
19811;BME280;10065;49.632;8.346;2022-09-01T07:18:26;100874.75;;;20.15;61.42
19811;BME280;10065;49.632;8.346;2022-09-01T07:20:54;100877.25;;;20.23;60.97
19811;BME280;10065;49.632;8.346;2022-09-01T07:23:42;100881.88;;;20.29;61.09
19811;BME280;10065;49.632;8.346;2022-09-01T07:26:30;100877.56;;;20.41;60.32
19811;BME280;10065;49.632;8.346;2022-09-01T07:29:01;100876.53;;;20.42;60.64
19811;BME280;10065;49.632;8.346;2022-09-01T07:31:34;100875.50;;;20.43;60.48
19811;BME280;10065;49.632;8.346;2022-09-01T07:34:24;100879.22;;;20.42;61.13
19811;BME280;10065;49.632;8.346;2022-09-01T07:37:13;100880.06;;;20.43;60.57
19811;BME280;10065;49.632;8.346;2022-09-01T07:40:01;100877.38;;;20.43;60.68
19811;BME280;10065;49.632;8.346;2022-09-01T07:42:54;100871.38;;;20.47;60.61
19811;BME280;10065;49.632;8.346;2022-09-01T07:45:43;100886.13;;;20.58;60.22
19811;BME280;10065;49.632;8.346;2022-09-01T07:48:13;100890.50;;;20.65;60.56
19811;BME280;10065;49.632;8.346;2022-09-01T07:51:05;100888.66;;;20.73;60.40
19811;BME280;10065;49.632;8.346;2022-09-01T07:53:53;100884.31;;;20.85;59.56
19811;BME280;10065;49.632;8.346;2022-09-01T07:56:22;100889.09;;;20.89;59.33
19811;BME280;10065;49.632;8.346;2022-09-01T07:58:51;100881.44;;;20.93;59.90
19811;BME280;10065;49.632;8.346;2022-09-01T08:01:22;100877.91;;;20.99;59.46
19811;BME280;10065;49.632;8.346;2022-09-01T08:03:53;100886.00;;;20.99;59.60
19811;BME280;10065;49.632;8.346;2022-09-01T08:06:24;100887.03;;;20.98;59.19
19811;BME280;10065;49.632;8.346;2022-09-01T08:08:54;100887.66;;;21.00;59.46
19811;BME280;10065;49.632;8.346;2022-09-01T08:11:27;100886.81;;;21.06;59.93
19811;BME280;10065;49.632;8.346;2022-09-01T08:14:15;100895.09;;;21.11;59.76
19811;BME280;10065;49.632;8.346;2022-09-01T08:16:45;100900.09;;;21.14;59.81
19811;BME280;10065;49.632;8.346;2022-09-01T08:19:20;100895.16;;;21.24;59.40
19811;BME280;10065;49.632;8.346;2022-09-01T08:21:48;100897.25;;;21.35;58.97
19811;BME280;10065;49.632;8.346;2022-09-01T08:24:16;100903.44;;;21.49;58.23
19811;BME280;10065;49.632;8.346;2022-09-01T08:26:44;100896.38;;;21.68;57.85
19811;BME280;10065;49.632;8.346;2022-09-01T08:29:12;100894.06;;;21.78;57.84
19811;BME280;10065;49.632;8.346;2022-09-01T08:31:40;100893.66;;;21.81;57.60
19811;BME280;10065;49.632;8.346;2022-09-01T08:34:09;100896.31;;;21.94;57.51
19811;BME280;10065;49.632;8.346;2022-09-01T08:36:38;100893.78;;;22.12;56.68
19811;BME280;10065;49.632;8.346;2022-09-01T08:39:06;100897.03;;;22.28;55.99
19811;BME280;10065;49.632;8.346;2022-09-01T08:41:41;100893.50;;;22.34;55.93
19811;BME280;10065;49.632;8.346;2022-09-01T08:44:19;100895.72;;;22.43;55.73
19811;BME280;10065;49.632;8.346;2022-09-01T08:46:53;100893.59;;;22.52;55.14
19811;BME280;10065;49.632;8.346;2022-09-01T08:49:25;100895.63;;;22.63;54.97
19811;BME280;10065;49.632;8.346;2022-09-01T08:51:57;100894.56;;;22.77;54.94
19811;BME280;10065;49.632;8.346;2022-09-01T08:54:33;100894.59;;;22.96;53.89
19811;BME280;10065;49.632;8.346;2022-09-01T08:57:05;100893.06;;;23.06;53.64
19811;BME280;10065;49.632;8.346;2022-09-01T08:59:33;100891.94;;;23.20;53.48
19811;BME280;10065;49.632;8.346;2022-09-01T09:02:13;100884.97;;;23.31;53.20
19811;BME280;10065;49.632;8.346;2022-09-01T09:04:52;100888.59;;;23.43;52.92
19811;BME280;10065;49.632;8.346;2022-09-01T09:07:36;100887.91;;;23.54;52.57
19811;BME280;10065;49.632;8.346;2022-09-01T09:10:12;100883.13;;;23.75;52.76
19811;BME280;10065;49.632;8.346;2022-09-01T09:12:56;100879.53;;;23.99;51.27
19811;BME280;10065;49.632;8.346;2022-09-01T09:15:32;100878.09;;;24.15;50.61
19811;BME280;10065;49.632;8.346;2022-09-01T09:18:12;100880.06;;;24.26;50.33
19811;BME280;10065;49.632;8.346;2022-09-01T09:21:08;100883.94;;;24.48;50.36
19811;BME280;10065;49.632;8.346;2022-09-01T09:23:42;100886.47;;;24.61;50.29
19811;BME280;10065;49.632;8.346;2022-09-01T09:26:11;100877.50;;;24.61;49.56
19811;BME280;10065;49.632;8.346;2022-09-01T09:28:47;100877.78;;;24.41;49.80
19811;BME280;10065;49.632;8.346;2022-09-01T09:31:30;100877.69;;;24.11;50.32
19811;BME280;10065;49.632;8.346;2022-09-01T09:33:58;100879.06;;;24.02;50.78
19811;BME280;10065;49.632;8.346;2022-09-01T09:36:33;100878.03;;;24.21;51.08
19811;BME280;10065;49.632;8.346;2022-09-01T09:39:08;100879.44;;;24.42;50.10
19811;BME280;10065;49.632;8.346;2022-09-01T09:41:37;100875.47;;;24.56;49.51
19811;BME280;10065;49.632;8.346;2022-09-01T09:44:16;100871.16;;;24.67;49.48
19811;BME280;10065;49.632;8.346;2022-09-01T09:46:48;100866.94;;;24.71;48.98
19811;BME280;10065;49.632;8.346;2022-09-01T09:49:19;100868.41;;;24.55;48.70
19811;BME280;10065;49.632;8.346;2022-09-01T09:52:14;100865.50;;;24.38;49.48
19811;BME280;10065;49.632;8.346;2022-09-01T09:54:58;100858.97;;;24.28;49.88
19811;BME280;10065;49.632;8.346;2022-09-01T09:57:28;100858.63;;;24.24;49.85
19811;BME280;10065;49.632;8.346;2022-09-01T10:00:00;100865.09;;;24.23;49.45
19811;BME280;10065;49.632;8.346;2022-09-01T10:02:32;100859.66;;;24.23;49.84
19811;BME280;10065;49.632;8.346;2022-09-01T10:05:21;100853.81;;;24.26;50.17
19811;BME280;10065;49.632;8.346;2022-09-01T10:07:52;100855.59;;;24.74;49.31
19811;BME280;10065;49.632;8.346;2022-09-01T10:10:28;100844.03;;;24.97;47.66
19811;BME280;10065;49.632;8.346;2022-09-01T10:12:57;100847.19;;;24.64;49.11
19811;BME280;10065;49.632;8.346;2022-09-01T10:15:29;100841.84;;;24.46;49.99
19811;BME280;10065;49.632;8.346;2022-09-01T10:18:02;100839.44;;;24.37;49.90
19811;BME280;10065;49.632;8.346;2022-09-01T10:20:52;100835.78;;;24.32;50.30
19811;BME280;10065;49.632;8.346;2022-09-01T10:23:23;100828.41;;;24.21;50.41
19811;BME280;10065;49.632;8.346;2022-09-01T10:26:01;100832.19;;;24.50;50.08
19811;BME280;10065;49.632;8.346;2022-09-01T10:28:33;100836.44;;;24.87;48.87
19811;BME280;10065;49.632;8.346;2022-09-01T10:31:03;100836.63;;;24.74;48.82
19811;BME280;10065;49.632;8.346;2022-09-01T10:33:34;100832.81;;;24.52;49.75
19811;BME280;10065;49.632;8.346;2022-09-01T10:36:05;100825.66;;;24.39;49.56
19811;BME280;10065;49.632;8.346;2022-09-01T10:38:35;100822.47;;;24.30;49.97
19811;BME280;10065;49.632;8.346;2022-09-01T10:41:05;100828.59;;;24.26;49.58
19811;BME280;10065;49.632;8.346;2022-09-01T10:43:42;100819.41;;;24.27;49.67
19811;BME280;10065;49.632;8.346;2022-09-01T10:49:23;100817.41;;;24.34;49.42
19811;BME280;10065;49.632;8.346;2022-09-01T10:55:43;100820.56;;;24.31;48.76
19811;BME280;10065;49.632;8.346;2022-09-01T10:58:24;100814.56;;;24.29;49.00
19811;BME280;10065;49.632;8.346;2022-09-01T11:01:16;100808.31;;;24.28;49.00
19811;BME280;10065;49.632;8.346;2022-09-01T11:04:03;100808.69;;;24.32;49.10
19811;BME280;10065;49.632;8.346;2022-09-01T11:06:54;100797.63;;;24.45;48.42
19811;BME280;10065;49.632;8.346;2022-09-01T11:09:41;100806.03;;;24.44;49.06
19811;BME280;10065;49.632;8.346;2022-09-01T11:12:40;100798.00;;;24.49;47.87
19811;BME280;10065;49.632;8.346;2022-09-01T11:15:36;100801.00;;;24.59;47.55
19811;BME280;10065;49.632;8.346;2022-09-01T11:18:10;100795.22;;;24.67;46.53
19811;BME280;10065;49.632;8.346;2022-09-01T11:20:44;100801.81;;;24.59;46.49
19811;BME280;10065;49.632;8.346;2022-09-01T11:23:21;100796.28;;;24.66;46.35
19811;BME280;10065;49.632;8.346;2022-09-01T11:25:53;100797.16;;;25.71;45.00
19811;BME280;10065;49.632;8.346;2022-09-01T11:28:42;100788.19;;;30.42;36.65
19811;BME280;10065;49.632;8.346;2022-09-01T11:31:15;100773.09;;;32.88;31.60
19811;BME280;10065;49.632;8.346;2022-09-01T11:36:57;100774.59;;;31.83;32.45
19811;BME280;10065;49.632;8.346;2022-09-01T11:39:32;100774.56;;;30.57;34.49
19811;BME280;10065;49.632;8.346;2022-09-01T11:42:08;100763.94;;;29.78;35.56
19811;BME280;10065;49.632;8.346;2022-09-01T11:44:43;100764.94;;;29.10;36.33
19811;BME280;10065;49.632;8.346;2022-09-01T11:47:15;100759.25;;;28.79;36.57
19811;BME280;10065;49.632;8.346;2022-09-01T11:49:50;100766.00;;;28.40;37.45
19811;BME280;10065;49.632;8.346;2022-09-01T11:52:21;100760.09;;;27.99;38.16
19811;BME280;10065;49.632;8.346;2022-09-01T11:54:50;100751.88;;;27.51;39.42
19811;BME280;10065;49.632;8.346;2022-09-01T11:57:28;100760.59;;;27.31;40.16
19811;BME280;10065;49.632;8.346;2022-09-01T11:59:58;100759.03;;;27.18;40.31
19811;BME280;10065;49.632;8.346;2022-09-01T12:02:28;100757.41;;;27.17;40.55
19811;BME280;10065;49.632;8.346;2022-09-01T12:04:57;100744.00;;;27.32;40.30
19811;BME280;10065;49.632;8.346;2022-09-01T12:07:32;100746.09;;;27.25;39.85
19811;BME280;10065;49.632;8.346;2022-09-01T12:10:02;100751.63;;;27.14;40.22
19811;BME280;10065;49.632;8.346;2022-09-01T12:12:37;100752.25;;;26.99;39.98
19811;BME280;10065;49.632;8.346;2022-09-01T12:15:08;100756.25;;;26.63;41.04
19811;BME280;10065;49.632;8.346;2022-09-01T12:17:39;100756.56;;;26.33;41.72
19811;BME280;10065;49.632;8.346;2022-09-01T12:20:21;100751.22;;;26.10;41.84
19811;BME280;10065;49.632;8.346;2022-09-01T12:22:55;100759.34;;;25.81;42.28
19811;BME280;10065;49.632;8.346;2022-09-01T12:25:26;100744.97;;;25.69;42.68
19811;BME280;10065;49.632;8.346;2022-09-01T12:27:55;100752.19;;;25.52;43.05
19811;BME280;10065;49.632;8.346;2022-09-01T12:30:24;100749.25;;;25.42;42.91
19811;BME280;10065;49.632;8.346;2022-09-01T12:32:52;100743.50;;;25.38;43.33
19811;BME280;10065;49.632;8.346;2022-09-01T12:35:40;100744.03;;;25.75;42.78
19811;BME280;10065;49.632;8.346;2022-09-01T12:38:24;100734.78;;;26.05;42.23
19811;BME280;10065;49.632;8.346;2022-09-01T12:40:54;100736.16;;;26.47;41.77
19811;BME280;10065;49.632;8.346;2022-09-01T12:43:35;100735.56;;;26.62;40.22
19811;BME280;10065;49.632;8.346;2022-09-01T12:46:06;100735.81;;;26.44;40.95
19811;BME280;10065;49.632;8.346;2022-09-01T12:48:38;100728.91;;;26.53;40.66
19811;BME280;10065;49.632;8.346;2022-09-01T12:51:15;100729.13;;;26.51;41.10
19811;BME280;10065;49.632;8.346;2022-09-01T12:53:51;100726.91;;;26.48;41.48
19811;BME280;10065;49.632;8.346;2022-09-01T12:56:24;100730.63;;;26.42;41.13
19811;BME280;10065;49.632;8.346;2022-09-01T12:59:06;100731.44;;;26.14;40.82
19811;BME280;10065;49.632;8.346;2022-09-01T13:01:42;100736.75;;;25.93;41.04
19811;BME280;10065;49.632;8.346;2022-09-01T13:04:28;100725.72;;;25.71;41.39
19811;BME280;10065;49.632;8.346;2022-09-01T13:07:02;100736.63;;;25.47;42.21
19811;BME280;10065;49.632;8.346;2022-09-01T13:09:30;100726.03;;;25.34;42.50
19811;BME280;10065;49.632;8.346;2022-09-01T13:12:15;100723.13;;;25.24;43.02
19811;BME280;10065;49.632;8.346;2022-09-01T13:14:45;100722.16;;;25.19;43.38
19811;BME280;10065;49.632;8.346;2022-09-01T13:17:13;100730.91;;;25.21;43.62
19811;BME280;10065;49.632;8.346;2022-09-01T13:19:41;100721.56;;;25.28;43.33
19811;BME280;10065;49.632;8.346;2022-09-01T13:22:09;100719.66;;;25.29;43.33
19811;BME280;10065;49.632;8.346;2022-09-01T13:24:37;100718.63;;;25.18;42.93
19811;BME280;10065;49.632;8.346;2022-09-01T13:27:05;100718.84;;;25.17;42.75
19811;BME280;10065;49.632;8.346;2022-09-01T13:29:50;100716.50;;;25.08;43.42
19811;BME280;10065;49.632;8.346;2022-09-01T13:32:19;100710.63;;;25.11;43.52